sensor_id;sensor_type;location;lat;lon;timestamp;P1;durP1;ratioP1;P2;durP2;ratioP2
11907;SDS011;6014;47.690;9.130;2024-02-21T00:01:21;3.07;;;1.50;;
11907;SDS011;6014;47.690;9.130;2024-02-21T00:03:50;2.93;;;1.43;;
11907;SDS011;6014;47.690;9.130;2024-02-21T00:06:18;6.27;;;1.63;;
11907;SDS011;6014;47.690;9.130;2024-02-21T00:08:46;3.73;;;1.33;;
11907;SDS011;6014;47.690;9.130;2024-02-21T00:11:14;6.60;;;1.70;;
11907;SDS011;6014;47.690;9.130;2024-02-21T00:13:42;4.47;;;1.50;;
11907;SDS011;6014;47.690;9.130;2024-02-21T00:16:12;6.83;;;1.97;;
11907;SDS011;6014;47.690;9.130;2024-02-21T00:18:42;1.93;;;1.23;;
11907;SDS011;6014;47.690;9.130;2024-02-21T00:21:10;2.97;;;1.70;;
11907;SDS011;6014;47.690;9.130;2024-02-21T00:23:44;2.67;;;1.37;;
11907;SDS011;6014;47.690;9.130;2024-02-21T00:26:13;3.53;;;1.40;;
11907;SDS011;6014;47.690;9.130;2024-02-21T00:28:41;5.17;;;1.70;;
11907;SDS011;6014;47.690;9.130;2024-02-21T00:31:10;5.97;;;1.70;;
11907;SDS011;6014;47.690;9.130;2024-02-21T00:33:39;4.83;;;1.50;;
11907;SDS011;6014;47.690;9.130;2024-02-21T00:36:08;2.20;;;1.40;;
11907;SDS011;6014;47.690;9.130;2024-02-21T00:38:36;3.77;;;1.70;;
11907;SDS011;6014;47.690;9.130;2024-02-21T00:41:04;2.97;;;1.40;;
11907;SDS011;6014;47.690;9.130;2024-02-21T00:43:32;2.10;;;1.20;;
11907;SDS011;6014;47.690;9.130;2024-02-21T00:46:00;4.93;;;1.60;;
11907;SDS011;6014;47.690;9.130;2024-02-21T00:48:29;3.27;;;1.70;;
11907;SDS011;6014;47.690;9.130;2024-02-21T00:50:57;3.40;;;1.40;;
11907;SDS011;6014;47.690;9.130;2024-02-21T00:53:26;6.00;;;2.27;;
11907;SDS011;6014;47.690;9.130;2024-02-21T00:55:54;3.70;;;1.77;;
11907;SDS011;6014;47.690;9.130;2024-02-21T00:58:23;4.37;;;1.60;;
11907;SDS011;6014;47.690;9.130;2024-02-21T01:00:51;4.17;;;1.87;;
11907;SDS011;6014;47.690;9.130;2024-02-21T01:03:19;5.10;;;1.87;;
11907;SDS011;6014;47.690;9.130;2024-02-21T01:05:49;5.43;;;1.90;;
11907;SDS011;6014;47.690;9.130;2024-02-21T01:08:17;3.77;;;2.00;;
11907;SDS011;6014;47.690;9.130;2024-02-21T01:10:45;5.83;;;1.97;;
11907;SDS011;6014;47.690;9.130;2024-02-21T01:13:13;3.63;;;1.77;;
11907;SDS011;6014;47.690;9.130;2024-02-21T01:15:41;6.90;;;2.47;;
11907;SDS011;6014;47.690;9.130;2024-02-21T01:18:09;5.53;;;2.00;;
11907;SDS011;6014;47.690;9.130;2024-02-21T01:20:38;5.10;;;1.70;;
11907;SDS011;6014;47.690;9.130;2024-02-21T01:23:07;4.23;;;1.80;;
11907;SDS011;6014;47.690;9.130;2024-02-21T01:25:35;2.87;;;1.30;;
11907;SDS011;6014;47.690;9.130;2024-02-21T01:28:03;7.40;;;1.53;;
11907;SDS011;6014;47.690;9.130;2024-02-21T01:30:32;2.73;;;1.40;;
11907;SDS011;6014;47.690;9.130;2024-02-21T01:33:00;2.27;;;1.30;;
11907;SDS011;6014;47.690;9.130;2024-02-21T01:35:28;6.07;;;1.63;;
11907;SDS011;6014;47.690;9.130;2024-02-21T01:37:57;4.03;;;2.13;;
11907;SDS011;6014;47.690;9.130;2024-02-21T01:40:26;3.47;;;1.93;;
11907;SDS011;6014;47.690;9.130;2024-02-21T01:42:55;5.03;;;1.73;;
11907;SDS011;6014;47.690;9.130;2024-02-21T01:45:23;3.43;;;1.80;;
11907;SDS011;6014;47.690;9.130;2024-02-21T01:47:51;3.67;;;1.67;;
11907;SDS011;6014;47.690;9.130;2024-02-21T01:50:19;2.83;;;1.60;;
11907;SDS011;6014;47.690;9.130;2024-02-21T01:52:49;7.03;;;2.40;;
11907;SDS011;6014;47.690;9.130;2024-02-21T01:55:18;5.57;;;1.90;;
11907;SDS011;6014;47.690;9.130;2024-02-21T01:57:48;3.70;;;1.70;;
11907;SDS011;6014;47.690;9.130;2024-02-21T02:00:17;1.90;;;1.30;;
11907;SDS011;6014;47.690;9.130;2024-02-21T02:02:47;2.43;;;1.40;;
11907;SDS011;6014;47.690;9.130;2024-02-21T02:05:15;5.47;;;2.17;;
11907;SDS011;6014;47.690;9.130;2024-02-21T02:07:45;3.33;;;1.37;;
11907;SDS011;6014;47.690;9.130;2024-02-21T02:10:13;5.40;;;1.87;;
11907;SDS011;6014;47.690;9.130;2024-02-21T02:12:41;5.90;;;1.40;;
11907;SDS011;6014;47.690;9.130;2024-02-21T02:15:11;2.00;;;1.47;;
11907;SDS011;6014;47.690;9.130;2024-02-21T02:17:39;3.97;;;1.73;;
11907;SDS011;6014;47.690;9.130;2024-02-21T02:20:07;5.20;;;2.20;;
11907;SDS011;6014;47.690;9.130;2024-02-21T02:22:36;6.20;;;2.03;;
11907;SDS011;6014;47.690;9.130;2024-02-21T02:25:07;3.97;;;2.07;;
11907;SDS011;6014;47.690;9.130;2024-02-21T02:27:41;4.10;;;1.93;;
11907;SDS011;6014;47.690;9.130;2024-02-21T02:30:11;4.03;;;2.10;;
11907;SDS011;6014;47.690;9.130;2024-02-21T02:32:43;6.90;;;2.17;;
11907;SDS011;6014;47.690;9.130;2024-02-21T02:35:12;2.90;;;1.70;;
11907;SDS011;6014;47.690;9.130;2024-02-21T02:37:47;8.63;;;2.30;;
11907;SDS011;6014;47.690;9.130;2024-02-21T02:40:17;5.43;;;2.10;;
11907;SDS011;6014;47.690;9.130;2024-02-21T02:42:45;3.70;;;1.90;;
11907;SDS011;6014;47.690;9.130;2024-02-21T02:45:15;4.73;;;2.20;;
11907;SDS011;6014;47.690;9.130;2024-02-21T02:47:44;3.10;;;1.90;;
11907;SDS011;6014;47.690;9.130;2024-02-21T02:50:13;5.17;;;2.20;;
11907;SDS011;6014;47.690;9.130;2024-02-21T02:52:41;5.03;;;2.17;;
11907;SDS011;6014;47.690;9.130;2024-02-21T02:55:10;5.23;;;2.20;;
11907;SDS011;6014;47.690;9.130;2024-02-21T02:57:39;5.40;;;2.10;;
11907;SDS011;6014;47.690;9.130;2024-02-21T03:00:08;3.37;;;2.50;;
11907;SDS011;6014;47.690;9.130;2024-02-21T03:02:38;4.40;;;2.50;;
11907;SDS011;6014;47.690;9.130;2024-02-21T03:05:11;6.77;;;2.47;;
11907;SDS011;6014;47.690;9.130;2024-02-21T03:07:41;5.17;;;2.23;;
11907;SDS011;6014;47.690;9.130;2024-02-21T03:10:10;6.40;;;2.20;;
11907;SDS011;6014;47.690;9.130;2024-02-21T03:12:40;4.10;;;2.17;;
11907;SDS011;6014;47.690;9.130;2024-02-21T03:15:09;6.13;;;2.17;;
11907;SDS011;6014;47.690;9.130;2024-02-21T03:17:37;5.67;;;2.50;;
11907;SDS011;6014;47.690;9.130;2024-02-21T03:20:06;4.17;;;2.17;;
11907;SDS011;6014;47.690;9.130;2024-02-21T03:22:39;6.57;;;2.47;;
11907;SDS011;6014;47.690;9.130;2024-02-21T03:25:08;6.20;;;2.30;;
11907;SDS011;6014;47.690;9.130;2024-02-21T03:27:36;6.60;;;2.33;;
11907;SDS011;6014;47.690;9.130;2024-02-21T03:30:06;7.73;;;2.70;;
11907;SDS011;6014;47.690;9.130;2024-02-21T03:32:35;6.43;;;2.67;;
11907;SDS011;6014;47.690;9.130;2024-02-21T03:35:05;4.93;;;2.20;;
11907;SDS011;6014;47.690;9.130;2024-02-21T03:37:34;6.87;;;2.73;;
11907;SDS011;6014;47.690;9.130;2024-02-21T03:40:02;4.40;;;2.50;;
11907;SDS011;6014;47.690;9.130;2024-02-21T03:42:35;5.60;;;2.33;;
11907;SDS011;6014;47.690;9.130;2024-02-21T03:45:03;4.37;;;2.30;;
11907;SDS011;6014;47.690;9.130;2024-02-21T03:47:33;5.57;;;2.33;;
11907;SDS011;6014;47.690;9.130;2024-02-21T03:50:01;4.87;;;2.37;;
11907;SDS011;6014;47.690;9.130;2024-02-21T03:52:29;4.80;;;2.37;;
11907;SDS011;6014;47.690;9.130;2024-02-21T03:54:57;5.00;;;2.30;;
11907;SDS011;6014;47.690;9.130;2024-02-21T03:57:25;8.57;;;2.20;;
11907;SDS011;6014;47.690;9.130;2024-02-21T03:59:53;6.07;;;2.20;;
11907;SDS011;6014;47.690;9.130;2024-02-21T04:02:21;8.60;;;2.80;;
11907;SDS011;6014;47.690;9.130;2024-02-21T04:04:51;4.87;;;2.83;;
11907;SDS011;6014;47.690;9.130;2024-02-21T04:07:19;6.63;;;2.60;;
11907;SDS011;6014;47.690;9.130;2024-02-21T04:09:47;7.63;;;2.90;;
11907;SDS011;6014;47.690;9.130;2024-02-21T04:12:15;7.10;;;2.47;;
11907;SDS011;6014;47.690;9.130;2024-02-21T04:14:43;6.93;;;2.63;;
11907;SDS011;6014;47.690;9.130;2024-02-21T04:17:13;6.60;;;2.80;;
11907;SDS011;6014;47.690;9.130;2024-02-21T04:19:41;5.83;;;2.83;;
11907;SDS011;6014;47.690;9.130;2024-02-21T04:22:10;7.53;;;2.83;;
11907;SDS011;6014;47.690;9.130;2024-02-21T04:24:38;6.40;;;2.60;;
11907;SDS011;6014;47.690;9.130;2024-02-21T04:27:06;6.50;;;3.27;;
11907;SDS011;6014;47.690;9.130;2024-02-21T04:29:34;6.03;;;3.00;;
11907;SDS011;6014;47.690;9.130;2024-02-21T04:32:03;8.00;;;3.30;;
11907;SDS011;6014;47.690;9.130;2024-02-21T04:34:31;6.50;;;3.30;;
11907;SDS011;6014;47.690;9.130;2024-02-21T04:37:00;5.67;;;3.40;;
11907;SDS011;6014;47.690;9.130;2024-02-21T04:39:29;9.27;;;3.27;;
11907;SDS011;6014;47.690;9.130;2024-02-21T04:41:57;9.53;;;3.40;;
11907;SDS011;6014;47.690;9.130;2024-02-21T04:44:25;5.67;;;3.23;;
11907;SDS011;6014;47.690;9.130;2024-02-21T04:46:53;10.23;;;3.40;;
11907;SDS011;6014;47.690;9.130;2024-02-21T04:49:21;6.53;;;3.13;;
11907;SDS011;6014;47.690;9.130;2024-02-21T04:51:50;6.47;;;3.13;;
11907;SDS011;6014;47.690;9.130;2024-02-21T04:54:18;7.57;;;3.10;;
11907;SDS011;6014;47.690;9.130;2024-02-21T04:56:47;6.30;;;2.63;;
11907;SDS011;6014;47.690;9.130;2024-02-21T04:59:19;4.63;;;3.00;;
11907;SDS011;6014;47.690;9.130;2024-02-21T05:01:47;4.73;;;2.80;;
11907;SDS011;6014;47.690;9.130;2024-02-21T05:04:15;6.03;;;2.83;;
11907;SDS011;6014;47.690;9.130;2024-02-21T05:06:43;4.90;;;2.80;;
11907;SDS011;6014;47.690;9.130;2024-02-21T05:09:11;6.23;;;3.47;;
11907;SDS011;6014;47.690;9.130;2024-02-21T05:11:39;7.10;;;3.60;;
11907;SDS011;6014;47.690;9.130;2024-02-21T05:14:09;6.00;;;3.03;;
11907;SDS011;6014;47.690;9.130;2024-02-21T05:16:38;11.57;;;4.27;;
11907;SDS011;6014;47.690;9.130;2024-02-21T05:19:07;8.63;;;3.57;;
11907;SDS011;6014;47.690;9.130;2024-02-21T05:21:35;6.23;;;3.10;;
11907;SDS011;6014;47.690;9.130;2024-02-21T05:24:03;4.90;;;2.97;;
11907;SDS011;6014;47.690;9.130;2024-02-21T05:26:32;5.80;;;3.00;;
11907;SDS011;6014;47.690;9.130;2024-02-21T05:29:00;6.10;;;2.87;;
11907;SDS011;6014;47.690;9.130;2024-02-21T05:34:25;5.70;;;2.73;;
11907;SDS011;6014;47.690;9.130;2024-02-21T05:36:53;7.33;;;2.80;;
11907;SDS011;6014;47.690;9.130;2024-02-21T05:39:21;8.07;;;3.60;;
11907;SDS011;6014;47.690;9.130;2024-02-21T05:41:50;7.53;;;3.50;;
11907;SDS011;6014;47.690;9.130;2024-02-21T05:44:18;5.13;;;2.80;;
11907;SDS011;6014;47.690;9.130;2024-02-21T05:46:49;7.13;;;3.50;;
11907;SDS011;6014;47.690;9.130;2024-02-21T05:49:18;7.43;;;3.17;;
11907;SDS011;6014;47.690;9.130;2024-02-21T05:51:46;7.17;;;3.20;;
11907;SDS011;6014;47.690;9.130;2024-02-21T05:54:14;6.60;;;3.43;;
11907;SDS011;6014;47.690;9.130;2024-02-21T05:56:43;6.93;;;3.13;;
11907;SDS011;6014;47.690;9.130;2024-02-21T05:59:12;6.53;;;3.37;;
11907;SDS011;6014;47.690;9.130;2024-02-21T06:01:40;8.83;;;3.67;;
11907;SDS011;6014;47.690;9.130;2024-02-21T06:04:10;6.87;;;3.07;;
11907;SDS011;6014;47.690;9.130;2024-02-21T06:06:38;7.50;;;4.00;;
11907;SDS011;6014;47.690;9.130;2024-02-21T06:09:06;8.97;;;4.00;;
11907;SDS011;6014;47.690;9.130;2024-02-21T06:11:34;9.10;;;5.33;;
11907;SDS011;6014;47.690;9.130;2024-02-21T06:14:04;11.57;;;5.07;;
11907;SDS011;6014;47.690;9.130;2024-02-21T06:16:32;10.47;;;4.20;;
11907;SDS011;6014;47.690;9.130;2024-02-21T06:19:00;8.03;;;4.87;;
11907;SDS011;6014;47.690;9.130;2024-02-21T06:21:33;11.37;;;4.90;;
11907;SDS011;6014;47.690;9.130;2024-02-21T06:24:01;8.47;;;4.70;;
11907;SDS011;6014;47.690;9.130;2024-02-21T06:26:29;8.27;;;4.60;;
11907;SDS011;6014;47.690;9.130;2024-02-21T06:28:57;10.37;;;3.83;;
11907;SDS011;6014;47.690;9.130;2024-02-21T06:31:28;11.93;;;4.53;;
11907;SDS011;6014;47.690;9.130;2024-02-21T06:33:57;8.03;;;3.67;;
11907;SDS011;6014;47.690;9.130;2024-02-21T06:36:26;6.57;;;3.70;;
11907;SDS011;6014;47.690;9.130;2024-02-21T06:38:55;6.73;;;3.80;;
11907;SDS011;6014;47.690;9.130;2024-02-21T06:41:23;8.83;;;3.70;;
11907;SDS011;6014;47.690;9.130;2024-02-21T06:43:52;10.93;;;3.87;;
11907;SDS011;6014;47.690;9.130;2024-02-21T06:46:23;7.67;;;3.40;;
11907;SDS011;6014;47.690;9.130;2024-02-21T06:48:52;6.43;;;4.10;;
11907;SDS011;6014;47.690;9.130;2024-02-21T06:51:23;7.33;;;4.20;;
11907;SDS011;6014;47.690;9.130;2024-02-21T06:53:51;8.43;;;3.63;;
11907;SDS011;6014;47.690;9.130;2024-02-21T06:56:22;7.80;;;3.40;;
11907;SDS011;6014;47.690;9.130;2024-02-21T06:58:53;6.30;;;3.40;;
11907;SDS011;6014;47.690;9.130;2024-02-21T07:01:21;9.10;;;3.83;;
11907;SDS011;6014;47.690;9.130;2024-02-21T07:03:49;5.70;;;3.33;;
11907;SDS011;6014;47.690;9.130;2024-02-21T07:06:17;8.53;;;4.73;;
11907;SDS011;6014;47.690;9.130;2024-02-21T07:08:46;5.80;;;3.53;;
11907;SDS011;6014;47.690;9.130;2024-02-21T07:11:14;9.63;;;4.30;;
11907;SDS011;6014;47.690;9.130;2024-02-21T07:13:43;12.70;;;4.87;;
11907;SDS011;6014;47.690;9.130;2024-02-21T07:16:11;9.13;;;4.20;;
11907;SDS011;6014;47.690;9.130;2024-02-21T07:18:39;7.53;;;4.00;;
11907;SDS011;6014;47.690;9.130;2024-02-21T07:21:08;11.13;;;5.13;;
11907;SDS011;6014;47.690;9.130;2024-02-21T07:23:36;7.47;;;4.10;;
11907;SDS011;6014;47.690;9.130;2024-02-21T07:26:04;7.20;;;4.40;;
11907;SDS011;6014;47.690;9.130;2024-02-21T07:28:32;7.47;;;3.93;;
11907;SDS011;6014;47.690;9.130;2024-02-21T07:31:01;7.93;;;4.13;;
11907;SDS011;6014;47.690;9.130;2024-02-21T07:33:30;11.63;;;4.43;;
11907;SDS011;6014;47.690;9.130;2024-02-21T07:35:59;10.50;;;4.97;;
11907;SDS011;6014;47.690;9.130;2024-02-21T07:38:27;6.77;;;4.33;;
11907;SDS011;6014;47.690;9.130;2024-02-21T07:40:55;8.13;;;4.20;;
11907;SDS011;6014;47.690;9.130;2024-02-21T07:43:23;9.37;;;4.53;;
11907;SDS011;6014;47.690;9.130;2024-02-21T07:45:52;9.43;;;4.73;;
11907;SDS011;6014;47.690;9.130;2024-02-21T07:48:22;7.43;;;4.33;;
11907;SDS011;6014;47.690;9.130;2024-02-21T07:50:52;11.90;;;4.40;;
11907;SDS011;6014;47.690;9.130;2024-02-21T07:53:20;9.57;;;3.83;;
11907;SDS011;6014;47.690;9.130;2024-02-21T07:55:49;8.57;;;3.93;;
11907;SDS011;6014;47.690;9.130;2024-02-21T07:58:17;10.47;;;5.00;;
11907;SDS011;6014;47.690;9.130;2024-02-21T08:00:45;8.53;;;4.03;;
11907;SDS011;6014;47.690;9.130;2024-02-21T08:03:14;13.60;;;4.73;;
11907;SDS011;6014;47.690;9.130;2024-02-21T08:05:45;8.03;;;4.83;;
11907;SDS011;6014;47.690;9.130;2024-02-21T08:08:13;10.30;;;4.73;;
11907;SDS011;6014;47.690;9.130;2024-02-21T08:10:44;9.40;;;4.30;;
11907;SDS011;6014;47.690;9.130;2024-02-21T08:13:13;9.63;;;4.67;;
11907;SDS011;6014;47.690;9.130;2024-02-21T08:15:41;8.13;;;4.43;;
11907;SDS011;6014;47.690;9.130;2024-02-21T08:18:09;9.43;;;5.07;;
11907;SDS011;6014;47.690;9.130;2024-02-21T08:20:38;7.60;;;4.30;;
11907;SDS011;6014;47.690;9.130;2024-02-21T08:23:09;10.27;;;5.70;;
11907;SDS011;6014;47.690;9.130;2024-02-21T08:25:37;14.60;;;6.17;;
11907;SDS011;6014;47.690;9.130;2024-02-21T08:28:05;10.07;;;5.20;;
11907;SDS011;6014;47.690;9.130;2024-02-21T08:30:34;9.70;;;4.83;;
11907;SDS011;6014;47.690;9.130;2024-02-21T08:33:02;8.57;;;5.20;;
11907;SDS011;6014;47.690;9.130;2024-02-21T08:35:31;9.90;;;4.50;;
11907;SDS011;6014;47.690;9.130;2024-02-21T08:37:59;12.20;;;4.90;;
11907;SDS011;6014;47.690;9.130;2024-02-21T08:40:29;10.37;;;5.13;;
11907;SDS011;6014;47.690;9.130;2024-02-21T08:42:57;9.10;;;4.97;;
11907;SDS011;6014;47.690;9.130;2024-02-21T08:45:25;9.33;;;4.37;;
11907;SDS011;6014;47.690;9.130;2024-02-21T08:47:56;14.27;;;4.70;;
11907;SDS011;6014;47.690;9.130;2024-02-21T08:50:31;8.93;;;4.50;;
11907;SDS011;6014;47.690;9.130;2024-02-21T08:53:00;8.00;;;4.27;;
11907;SDS011;6014;47.690;9.130;2024-02-21T08:55:41;11.93;;;4.40;;
11907;SDS011;6014;47.690;9.130;2024-02-21T08:58:11;7.73;;;4.13;;
11907;SDS011;6014;47.690;9.130;2024-02-21T09:00:45;9.70;;;5.13;;
11907;SDS011;6014;47.690;9.130;2024-02-21T09:03:32;8.77;;;4.50;;
11907;SDS011;6014;47.690;9.130;2024-02-21T09:06:04;12.47;;;4.60;;
11907;SDS011;6014;47.690;9.130;2024-02-21T09:08:52;13.97;;;4.67;;
11907;SDS011;6014;47.690;9.130;2024-02-21T09:11:31;7.60;;;4.60;;
11907;SDS011;6014;47.690;9.130;2024-02-21T09:14:02;9.10;;;4.60;;
11907;SDS011;6014;47.690;9.130;2024-02-21T09:16:35;7.93;;;4.30;;
11907;SDS011;6014;47.690;9.130;2024-02-21T09:19:10;6.27;;;3.67;;
11907;SDS011;6014;47.690;9.130;2024-02-21T09:21:50;11.00;;;5.30;;
11907;SDS011;6014;47.690;9.130;2024-02-21T09:24:28;9.10;;;4.30;;
11907;SDS011;6014;47.690;9.130;2024-02-21T09:27:14;7.33;;;4.27;;
11907;SDS011;6014;47.690;9.130;2024-02-21T09:29:49;6.87;;;3.97;;
11907;SDS011;6014;47.690;9.130;2024-02-21T09:32:27;9.00;;;4.10;;
11907;SDS011;6014;47.690;9.130;2024-02-21T09:35:02;8.97;;;3.57;;
11907;SDS011;6014;47.690;9.130;2024-02-21T09:37:32;8.07;;;3.83;;
11907;SDS011;6014;47.690;9.130;2024-02-21T09:40:09;7.67;;;3.33;;
11907;SDS011;6014;47.690;9.130;2024-02-21T09:42:47;7.00;;;3.20;;
11907;SDS011;6014;47.690;9.130;2024-02-21T09:45:23;7.27;;;3.43;;
11907;SDS011;6014;47.690;9.130;2024-02-21T09:50:51;5.93;;;3.03;;
11907;SDS011;6014;47.690;9.130;2024-02-21T09:53:25;5.72;;;3.20;;
11907;SDS011;6014;47.690;9.130;2024-02-21T09:56:05;5.57;;;2.53;;
11907;SDS011;6014;47.690;9.130;2024-02-21T09:58:42;5.53;;;2.65;;
11907;SDS011;6014;47.690;9.130;2024-02-21T10:01:21;4.93;;;2.40;;
11907;SDS011;6014;47.690;9.130;2024-02-21T10:04:00;6.88;;;2.47;;
11907;SDS011;6014;47.690;9.130;2024-02-21T10:06:29;4.65;;;2.33;;
11907;SDS011;6014;47.690;9.130;2024-02-21T10:08:58;5.82;;;2.30;;
11907;SDS011;6014;47.690;9.130;2024-02-21T10:11:26;4.63;;;2.10;;
11907;SDS011;6014;47.690;9.130;2024-02-21T10:14:03;4.60;;;2.08;;
11907;SDS011;6014;47.690;9.130;2024-02-21T10:16:33;4.93;;;2.70;;
11907;SDS011;6014;47.690;9.130;2024-02-21T10:19:02;5.45;;;2.17;;
11907;SDS011;6014;47.690;9.130;2024-02-21T10:21:31;3.85;;;2.10;;
11907;SDS011;6014;47.690;9.130;2024-02-21T10:24:00;4.65;;;2.28;;
11907;SDS011;6014;47.690;9.130;2024-02-21T10:26:28;4.30;;;2.20;;
11907;SDS011;6014;47.690;9.130;2024-02-21T10:28:56;4.95;;;1.90;;
11907;SDS011;6014;47.690;9.130;2024-02-21T10:31:26;3.47;;;1.83;;
11907;SDS011;6014;47.690;9.130;2024-02-21T10:33:56;4.97;;;1.95;;
11907;SDS011;6014;47.690;9.130;2024-02-21T10:36:25;6.68;;;2.22;;
11907;SDS011;6014;47.690;9.130;2024-02-21T10:38:54;4.88;;;1.70;;
11907;SDS011;6014;47.690;9.130;2024-02-21T10:41:22;3.28;;;1.70;;
11907;SDS011;6014;47.690;9.130;2024-02-21T10:43:53;4.43;;;1.67;;
11907;SDS011;6014;47.690;9.130;2024-02-21T10:46:23;3.42;;;1.63;;
11907;SDS011;6014;47.690;9.130;2024-02-21T10:48:56;5.72;;;1.98;;
11907;SDS011;6014;47.690;9.130;2024-02-21T10:51:32;4.35;;;1.73;;
11907;SDS011;6014;47.690;9.130;2024-02-21T10:54:11;3.30;;;1.77;;
11907;SDS011;6014;47.690;9.130;2024-02-21T10:56:49;3.70;;;1.65;;
11907;SDS011;6014;47.690;9.130;2024-02-21T10:59:18;5.13;;;2.28;;
11907;SDS011;6014;47.690;9.130;2024-02-21T11:01:47;5.15;;;2.15;;
11907;SDS011;6014;47.690;9.130;2024-02-21T11:04:17;4.45;;;1.88;;
11907;SDS011;6014;47.690;9.130;2024-02-21T11:06:46;4.43;;;1.80;;
11907;SDS011;6014;47.690;9.130;2024-02-21T11:09:15;4.15;;;1.60;;
11907;SDS011;6014;47.690;9.130;2024-02-21T11:11:43;5.25;;;1.88;;
11907;SDS011;6014;47.690;9.130;2024-02-21T11:14:18;4.38;;;1.92;;
11907;SDS011;6014;47.690;9.130;2024-02-21T11:16:47;4.90;;;2.10;;
11907;SDS011;6014;47.690;9.130;2024-02-21T11:19:20;3.55;;;1.90;;
11907;SDS011;6014;47.690;9.130;2024-02-21T11:21:50;4.25;;;2.10;;
11907;SDS011;6014;47.690;9.130;2024-02-21T11:24:28;6.47;;;2.03;;
11907;SDS011;6014;47.690;9.130;2024-02-21T11:27:07;3.88;;;2.08;;
11907;SDS011;6014;47.690;9.130;2024-02-21T11:29:39;5.40;;;1.88;;
11907;SDS011;6014;47.690;9.130;2024-02-21T11:32:09;5.82;;;1.85;;
11907;SDS011;6014;47.690;9.130;2024-02-21T11:34:40;4.32;;;1.90;;
11907;SDS011;6014;47.690;9.130;2024-02-21T11:37:14;4.00;;;1.85;;
11907;SDS011;6014;47.690;9.130;2024-02-21T11:39:43;3.70;;;1.90;;
11907;SDS011;6014;47.690;9.130;2024-02-21T11:42:12;5.35;;;2.10;;
11907;SDS011;6014;47.690;9.130;2024-02-21T11:44:40;4.53;;;2.10;;
11907;SDS011;6014;47.690;9.130;2024-02-21T11:47:10;3.88;;;1.92;;
11907;SDS011;6014;47.690;9.130;2024-02-21T11:49:46;5.38;;;2.05;;
11907;SDS011;6014;47.690;9.130;2024-02-21T11:52:16;3.83;;;1.88;;
11907;SDS011;6014;47.690;9.130;2024-02-21T11:54:46;4.20;;;1.63;;
11907;SDS011;6014;47.690;9.130;2024-02-21T11:57:15;4.82;;;1.85;;
11907;SDS011;6014;47.690;9.130;2024-02-21T11:59:45;6.43;;;2.67;;
11907;SDS011;6014;47.690;9.130;2024-02-21T12:02:13;3.75;;;1.90;;
11907;SDS011;6014;47.690;9.130;2024-02-21T12:04:43;3.83;;;1.55;;
11907;SDS011;6014;47.690;9.130;2024-02-21T12:07:12;3.58;;;1.70;;
11907;SDS011;6014;47.690;9.130;2024-02-21T12:09:42;5.40;;;2.15;;
11907;SDS011;6014;47.690;9.130;2024-02-21T12:12:10;5.40;;;1.95;;
11907;SDS011;6014;47.690;9.130;2024-02-21T12:14:38;6.53;;;2.15;;
11907;SDS011;6014;47.690;9.130;2024-02-21T12:17:06;4.18;;;2.08;;
11907;SDS011;6014;47.690;9.130;2024-02-21T12:19:34;4.82;;;2.00;;
11907;SDS011;6014;47.690;9.130;2024-02-21T12:22:04;3.60;;;1.95;;
11907;SDS011;6014;47.690;9.130;2024-02-21T12:24:35;4.43;;;1.80;;
11907;SDS011;6014;47.690;9.130;2024-02-21T12:27:04;3.03;;;1.70;;
11907;SDS011;6014;47.690;9.130;2024-02-21T12:29:33;5.88;;;1.88;;
11907;SDS011;6014;47.690;9.130;2024-02-21T12:32:09;4.90;;;2.00;;
11907;SDS011;6014;47.690;9.130;2024-02-21T12:34:37;4.00;;;1.70;;
11907;SDS011;6014;47.690;9.130;2024-02-21T12:37:21;5.13;;;2.22;;
11907;SDS011;6014;47.690;9.130;2024-02-21T12:39:49;3.78;;;1.85;;
11907;SDS011;6014;47.690;9.130;2024-02-21T12:42:17;6.43;;;2.13;;
11907;SDS011;6014;47.690;9.130;2024-02-21T12:47:34;4.50;;;2.30;;
11907;SDS011;6014;47.690;9.130;2024-02-21T12:50:03;4.60;;;1.80;;
11907;SDS011;6014;47.690;9.130;2024-02-21T12:52:35;4.70;;;1.85;;
11907;SDS011;6014;47.690;9.130;2024-02-21T12:55:03;5.05;;;2.03;;
11907;SDS011;6014;47.690;9.130;2024-02-21T12:57:32;7.70;;;2.30;;
11907;SDS011;6014;47.690;9.130;2024-02-21T13:00:00;4.93;;;2.20;;
11907;SDS011;6014;47.690;9.130;2024-02-21T13:02:32;4.85;;;2.08;;
11907;SDS011;6014;47.690;9.130;2024-02-21T13:05:00;3.83;;;1.77;;
11907;SDS011;6014;47.690;9.130;2024-02-21T13:07:29;4.53;;;2.15;;
11907;SDS011;6014;47.690;9.130;2024-02-21T13:09:59;5.10;;;1.90;;
11907;SDS011;6014;47.690;9.130;2024-02-21T13:12:28;4.53;;;1.90;;
11907;SDS011;6014;47.690;9.130;2024-02-21T13:14:56;5.50;;;2.10;;
11907;SDS011;6014;47.690;9.130;2024-02-21T13:17:24;5.20;;;2.05;;
11907;SDS011;6014;47.690;9.130;2024-02-21T13:19:57;5.32;;;1.90;;
11907;SDS011;6014;47.690;9.130;2024-02-21T13:22:26;3.78;;;1.70;;
11907;SDS011;6014;47.690;9.130;2024-02-21T13:24:54;4.55;;;1.67;;
11907;SDS011;6014;47.690;9.130;2024-02-21T13:27:25;6.80;;;2.30;;
11907;SDS011;6014;47.690;9.130;2024-02-21T13:29:53;4.63;;;1.95;;
11907;SDS011;6014;47.690;9.130;2024-02-21T13:32:21;3.92;;;1.73;;
11907;SDS011;6014;47.690;9.130;2024-02-21T13:34:50;3.15;;;1.65;;
11907;SDS011;6014;47.690;9.130;2024-02-21T13:37:19;3.90;;;2.10;;
11907;SDS011;6014;47.690;9.130;2024-02-21T13:39:55;5.50;;;2.08;;
11907;SDS011;6014;47.690;9.130;2024-02-21T13:42:23;6.30;;;2.05;;
11907;SDS011;6014;47.690;9.130;2024-02-21T13:44:54;3.15;;;1.75;;
11907;SDS011;6014;47.690;9.130;2024-02-21T13:47:22;4.57;;;1.95;;
11907;SDS011;6014;47.690;9.130;2024-02-21T13:49:50;5.22;;;1.90;;
11907;SDS011;6014;47.690;9.130;2024-02-21T13:52:19;3.60;;;1.83;;
11907;SDS011;6014;47.690;9.130;2024-02-21T13:54:48;4.68;;;1.98;;
11907;SDS011;6014;47.690;9.130;2024-02-21T13:57:16;6.78;;;2.20;;
11907;SDS011;6014;47.690;9.130;2024-02-21T13:59:48;4.15;;;1.63;;
11907;SDS011;6014;47.690;9.130;2024-02-21T14:02:17;4.45;;;1.27;;
11907;SDS011;6014;47.690;9.130;2024-02-21T14:04:55;5.78;;;1.92;;
11907;SDS011;6014;47.690;9.130;2024-02-21T14:07:23;7.53;;;2.78;;
11907;SDS011;6014;47.690;9.130;2024-02-21T14:10:01;6.50;;;2.33;;
11907;SDS011;6014;47.690;9.130;2024-02-21T14:12:30;4.50;;;2.20;;
11907;SDS011;6014;47.690;9.130;2024-02-21T14:14:59;4.13;;;1.95;;
11907;SDS011;6014;47.690;9.130;2024-02-21T14:17:27;10.77;;;2.58;;
11907;SDS011;6014;47.690;9.130;2024-02-21T14:19:55;6.45;;;2.50;;
11907;SDS011;6014;47.690;9.130;2024-02-21T14:22:23;7.85;;;2.22;;
11907;SDS011;6014;47.690;9.130;2024-02-21T14:24:51;7.60;;;2.30;;
11907;SDS011;6014;47.690;9.130;2024-02-21T14:27:20;6.00;;;2.40;;
11907;SDS011;6014;47.690;9.130;2024-02-21T14:29:48;8.10;;;2.95;;
11907;SDS011;6014;47.690;9.130;2024-02-21T14:32:19;6.90;;;2.72;;
11907;SDS011;6014;47.690;9.130;2024-02-21T14:34:47;5.47;;;2.53;;
11907;SDS011;6014;47.690;9.130;2024-02-21T14:37:16;7.43;;;2.33;;
11907;SDS011;6014;47.690;9.130;2024-02-21T14:39:44;5.03;;;2.38;;
11907;SDS011;6014;47.690;9.130;2024-02-21T14:42:12;9.05;;;2.65;;
11907;SDS011;6014;47.690;9.130;2024-02-21T14:44:40;4.95;;;2.53;;
11907;SDS011;6014;47.690;9.130;2024-02-21T14:47:08;4.80;;;2.80;;
11907;SDS011;6014;47.690;9.130;2024-02-21T14:49:38;4.43;;;1.98;;
11907;SDS011;6014;47.690;9.130;2024-02-21T14:52:06;8.10;;;2.30;;
11907;SDS011;6014;47.690;9.130;2024-02-21T14:54:34;5.47;;;2.25;;
11907;SDS011;6014;47.690;9.130;2024-02-21T14:57:02;9.30;;;2.40;;
11907;SDS011;6014;47.690;9.130;2024-02-21T14:59:30;5.22;;;1.67;;
11907;SDS011;6014;47.690;9.130;2024-02-21T15:02:00;7.45;;;2.40;;
11907;SDS011;6014;47.690;9.130;2024-02-21T15:04:28;9.40;;;2.55;;
11907;SDS011;6014;47.690;9.130;2024-02-21T15:06:59;6.07;;;2.20;;
11907;SDS011;6014;47.690;9.130;2024-02-21T15:09:27;4.85;;;2.50;;
11907;SDS011;6014;47.690;9.130;2024-02-21T15:11:55;5.00;;;2.40;;
11907;SDS011;6014;47.690;9.130;2024-02-21T15:14:23;5.03;;;2.40;;
11907;SDS011;6014;47.690;9.130;2024-02-21T15:16:51;6.35;;;3.22;;
11907;SDS011;6014;47.690;9.130;2024-02-21T15:19:20;9.98;;;3.45;;
11907;SDS011;6014;47.690;9.130;2024-02-21T15:21:49;8.50;;;3.10;;
11907;SDS011;6014;47.690;9.130;2024-02-21T15:24:19;6.13;;;3.13;;